PWSweather.com
Personal Weather Stations
Station Observations
ANTHEMNP
Anthem North Parkside, Anthem, AZ 85086

Anthem North ParksideAnthem, AZ 85086

Lat: 33.876464, Lon: -112.13861199999997

Elevation: 1930

Station Type: Davis Vantage Vue with Pro 2 console

http://www.azjerry.com/ANPW/wxindex.php

High Low Average
Temperature 104.2°F40.1°C 83.2°F28.4°C 94.1°F34.5°C
Dew Point 68.0°F20.0°C 58.0°F14.4°C 62.0°F16.7°C
Winds 4.7 mph 7.6 kmh Calm Calm 2.0 mph S3.2 kmh S
Wind Gusts 14.0 mph22.5 kmh -- 5.0 mph8.0 kmh
Humidity 53% 23% 36%
Pressure 29.95 in1014.2 mb 29.78 in1008.5 mb -
Precipitation 0.00 in0.0 mm - -
Hour Temp Dew Point Humidity Winds Wind Gusts Pressure Precip Precip Rate Daily Precip Total
12:00 AM 86.3°F30.2°C 62.0°F16.7°C 44% Calm Calm -- 29.87 in1011.5 mb 0.00 in0.0 mm 0.00 in0.0 mm 0.00 in0.0 mm
12:10 AM 86.1°F30.1°C 62.0°F16.7°C 44% Calm Calm 1.0 mph1.6 kmh 29.87 in1011.5 mb 0.00 in0.0 mm 0.00 in0.0 mm 0.00 in0.0 mm
12:20 AM 86.1°F30.1°C 62.0°F16.7°C 44% Calm Calm 1.0 mph1.6 kmh 29.87 in1011.5 mb 0.00 in0.0 mm 0.00 in0.0 mm 0.00 in0.0 mm
12:30 AM 85.6°F29.8°C 62.0°F16.7°C 45% Calm Calm 1.0 mph1.6 kmh 29.87 in1011.5 mb 0.00 in0.0 mm 0.00 in0.0 mm 0.00 in0.0 mm
12:40 AM 85.7°F29.8°C 62.0°F16.7°C 45% Calm Calm 1.0 mph1.6 kmh 29.88 in1011.9 mb 0.00 in0.0 mm 0.00 in0.0 mm 0.00 in0.0 mm
12:50 AM 85.7°F29.8°C 63.0°F17.2°C 46% Calm Calm 1.0 mph1.6 kmh 29.87 in1011.5 mb 0.00 in0.0 mm 0.00 in0.0 mm 0.00 in0.0 mm
01:00 AM 85.2°F29.6°C 62.0°F16.7°C 46% Calm Calm -- 29.87 in1011.5 mb 0.00 in0.0 mm 0.00 in0.0 mm 0.00 in0.0 mm
01:10 AM 85.7°F29.8°C 63.0°F17.2°C 46% 0.4 mph N0.6 kmh N 2.0 mph3.2 kmh 29.87 in1011.5 mb 0.00 in0.0 mm 0.00 in0.0 mm 0.00 in0.0 mm
01:20 AM 85.3°F29.6°C 63.0°F17.2°C 47% 0.1 mph SE0.2 kmh SE 1.0 mph1.6 kmh 29.87 in1011.5 mb 0.00 in0.0 mm 0.00 in0.0 mm 0.00 in0.0 mm
01:30 AM 85.1°F29.5°C 62.0°F16.7°C 46% Calm Calm 1.0 mph1.6 kmh 29.86 in1011.2 mb 0.00 in0.0 mm 0.00 in0.0 mm 0.00 in0.0 mm
01:40 AM 85.0°F29.4°C 62.0°F16.7°C 46% 0.2 mph NNE0.3 kmh NNE 1.0 mph1.6 kmh 29.86 in1011.2 mb 0.00 in0.0 mm 0.00 in0.0 mm 0.00 in0.0 mm
01:50 AM 85.1°F29.5°C 62.0°F16.7°C 46% Calm Calm 1.0 mph1.6 kmh 29.86 in1011.2 mb 0.00 in0.0 mm 0.00 in0.0 mm 0.00 in0.0 mm
02:00 AM 85.5°F29.7°C 61.0°F16.1°C 44% 0.6 mph NNE1.0 kmh NNE 3.0 mph4.8 kmh 29.86 in1011.2 mb 0.00 in0.0 mm 0.00 in0.0 mm 0.00 in0.0 mm
02:10 AM 85.7°F29.8°C 61.0°F16.1°C 44% 0.1 mph NE0.2 kmh NE 2.0 mph3.2 kmh 29.86 in1011.2 mb 0.00 in0.0 mm 0.00 in0.0 mm 0.00 in0.0 mm
02:20 AM 85.4°F29.7°C 60.0°F15.6°C 43% 0.1 mph NNE0.2 kmh NNE 1.0 mph1.6 kmh 29.86 in1011.2 mb 0.00 in0.0 mm 0.00 in0.0 mm 0.00 in0.0 mm
02:30 AM 85.6°F29.8°C 61.0°F16.1°C 44% Calm Calm 1.0 mph1.6 kmh 29.87 in1011.5 mb 0.00 in0.0 mm 0.00 in0.0 mm 0.00 in0.0 mm
02:40 AM 85.2°F29.6°C 61.0°F16.1°C 44% Calm Calm 1.0 mph1.6 kmh 29.87 in1011.5 mb 0.00 in0.0 mm 0.00 in0.0 mm 0.00 in0.0 mm
02:50 AM 85.3°F29.6°C 61.0°F16.1°C 44% Calm Calm 1.0 mph1.6 kmh 29.87 in1011.5 mb 0.00 in0.0 mm 0.00 in0.0 mm 0.00 in0.0 mm
03:00 AM 85.4°F29.7°C 61.0°F16.1°C 44% 1.0 mph NNE1.6 kmh NNE 3.0 mph4.8 kmh 29.87 in1011.5 mb 0.00 in0.0 mm 0.00 in0.0 mm 0.00 in0.0 mm
03:10 AM 85.3°F29.6°C 61.0°F16.1°C 44% 1.7 mph N2.7 kmh N 3.0 mph4.8 kmh 29.87 in1011.5 mb 0.00 in0.0 mm 0.00 in0.0 mm 0.00 in0.0 mm
03:20 AM 85.2°F29.6°C 62.0°F16.7°C 45% 1.7 mph NNE2.7 kmh NNE 4.0 mph6.4 kmh 29.87 in1011.5 mb 0.00 in0.0 mm 0.00 in0.0 mm 0.00 in0.0 mm
03:30 AM 85.1°F29.5°C 61.0°F16.1°C 45% 0.9 mph NNE1.4 kmh NNE 2.0 mph3.2 kmh 29.87 in1011.5 mb 0.00 in0.0 mm 0.00 in0.0 mm 0.00 in0.0 mm
03:40 AM 85.0°F29.4°C 61.0°F16.1°C 45% 0.1 mph NNE0.2 kmh NNE 1.0 mph1.6 kmh 29.88 in1011.9 mb 0.00 in0.0 mm 0.00 in0.0 mm 0.00 in0.0 mm
03:50 AM 84.6°F29.2°C 62.0°F16.7°C 46% Calm Calm 1.0 mph1.6 kmh 29.88 in1011.9 mb 0.00 in0.0 mm 0.00 in0.0 mm 0.00 in0.0 mm
04:00 AM 84.4°F29.1°C 61.0°F16.1°C 46% Calm Calm -- 29.88 in1011.9 mb 0.00 in0.0 mm 0.00 in0.0 mm 0.00 in0.0 mm
04:10 AM 84.1°F28.9°C 62.0°F16.7°C 47% Calm Calm 1.0 mph1.6 kmh 29.89 in1012.2 mb 0.00 in0.0 mm 0.00 in0.0 mm 0.00 in0.0 mm
04:20 AM 84.3°F29.1°C 62.0°F16.7°C 47% Calm Calm 1.0 mph1.6 kmh 29.89 in1012.2 mb 0.00 in0.0 mm 0.00 in0.0 mm 0.00 in0.0 mm
04:30 AM 84.0°F28.9°C 62.0°F16.7°C 48% Calm Calm -- 29.89 in1012.2 mb 0.00 in0.0 mm 0.00 in0.0 mm 0.00 in0.0 mm
04:40 AM 83.6°F28.7°C 62.0°F16.7°C 49% Calm Calm -- 29.89 in1012.2 mb 0.00 in0.0 mm 0.00 in0.0 mm 0.00 in0.0 mm
04:50 AM 83.5°F28.6°C 63.0°F17.2°C 50% Calm Calm 1.0 mph1.6 kmh 29.89 in1012.2 mb 0.00 in0.0 mm 0.00 in0.0 mm 0.00 in0.0 mm
05:00 AM 84.1°F28.9°C 62.0°F16.7°C 47% 0.5 mph NNE0.8 kmh NNE 3.0 mph4.8 kmh 29.90 in1012.5 mb 0.00 in0.0 mm 0.00 in0.0 mm 0.00 in0.0 mm
05:10 AM 84.0°F28.9°C 63.0°F17.2°C 49% Calm Calm 1.0 mph1.6 kmh 29.90 in1012.5 mb 0.00 in0.0 mm 0.00 in0.0 mm 0.00 in0.0 mm
05:20 AM 83.8°F28.8°C 63.0°F17.2°C 49% Calm Calm -- 29.90 in1012.5 mb 0.00 in0.0 mm 0.00 in0.0 mm 0.00 in0.0 mm
05:30 AM 83.6°F28.7°C 63.0°F17.2°C 50% Calm Calm -- 29.91 in1012.9 mb 0.00 in0.0 mm 0.00 in0.0 mm 0.00 in0.0 mm
05:40 AM 83.3°F28.5°C 63.0°F17.2°C 51% Calm Calm 1.0 mph1.6 kmh 29.91 in1012.9 mb 0.00 in0.0 mm 0.00 in0.0 mm 0.00 in0.0 mm
05:50 AM 83.2°F28.4°C 63.0°F17.2°C 51% 0.1 mph SE0.2 kmh SE 1.0 mph1.6 kmh 29.91 in1012.9 mb 0.00 in0.0 mm 0.00 in0.0 mm 0.00 in0.0 mm
06:00 AM 83.5°F28.6°C 63.0°F17.2°C 51% 0.5 mph S0.8 kmh S 1.0 mph1.6 kmh 29.91 in1012.9 mb 0.00 in0.0 mm 0.00 in0.0 mm 0.00 in0.0 mm
06:10 AM 83.9°F28.8°C 64.0°F17.8°C 51% 0.7 mph SE1.1 kmh SE 2.0 mph3.2 kmh 29.91 in1012.9 mb 0.00 in0.0 mm 0.00 in0.0 mm 0.00 in0.0 mm
06:20 AM 84.0°F28.9°C 64.0°F17.8°C 51% 0.1 mph SSE0.2 kmh SSE 2.0 mph3.2 kmh 29.92 in1013.2 mb 0.00 in0.0 mm 0.00 in0.0 mm 0.00 in0.0 mm
06:30 AM 84.2°F29.0°C 65.0°F18.3°C 52% 0.6 mph SE1.0 kmh SE 3.0 mph4.8 kmh 29.92 in1013.2 mb 0.00 in0.0 mm 0.00 in0.0 mm 0.00 in0.0 mm
06:40 AM 84.6°F29.2°C 66.0°F18.9°C 53% 1.1 mph SSE1.8 kmh SSE 3.0 mph4.8 kmh 29.92 in1013.2 mb 0.00 in0.0 mm 0.00 in0.0 mm 0.00 in0.0 mm
06:50 AM 84.9°F29.4°C 66.0°F18.9°C 53% 1.0 mph SE1.6 kmh SE 2.0 mph3.2 kmh 29.93 in1013.5 mb 0.00 in0.0 mm 0.00 in0.0 mm 0.00 in0.0 mm
07:00 AM 85.1°F29.5°C 66.0°F18.9°C 53% 1.1 mph SE1.8 kmh SE 3.0 mph4.8 kmh 29.93 in1013.5 mb 0.00 in0.0 mm 0.00 in0.0 mm 0.00 in0.0 mm
07:10 AM 85.3°F29.6°C 66.0°F18.9°C 53% 1.1 mph SW1.8 kmh SW 3.0 mph4.8 kmh 29.94 in1013.9 mb 0.00 in0.0 mm 0.00 in0.0 mm 0.00 in0.0 mm
07:20 AM 85.8°F29.9°C 66.0°F18.9°C 52% 1.0 mph SE1.6 kmh SE 3.0 mph4.8 kmh 29.93 in1013.5 mb 0.00 in0.0 mm 0.00 in0.0 mm 0.00 in0.0 mm
07:30 AM 87.2°F30.7°C 67.0°F19.4°C 51% 0.5 mph S0.8 kmh S 2.0 mph3.2 kmh 29.94 in1013.9 mb 0.00 in0.0 mm 0.00 in0.0 mm 0.00 in0.0 mm
07:40 AM 87.7°F30.9°C 67.0°F19.4°C 50% 1.4 mph SW2.3 kmh SW 5.0 mph8.0 kmh 29.94 in1013.9 mb 0.00 in0.0 mm 0.00 in0.0 mm 0.00 in0.0 mm
07:50 AM 89.0°F31.7°C 67.0°F19.4°C 48% 1.2 mph SE1.9 kmh SE 3.0 mph4.8 kmh 29.94 in1013.9 mb 0.00 in0.0 mm 0.00 in0.0 mm 0.00 in0.0 mm
08:00 AM 90.7°F32.6°C 67.0°F19.4°C 46% 1.1 mph SE1.8 kmh SE 3.0 mph4.8 kmh 29.95 in1014.2 mb 0.00 in0.0 mm 0.00 in0.0 mm 0.00 in0.0 mm
08:10 AM 93.2°F34.0°C 68.0°F20.0°C 43% 0.7 mph SE1.1 kmh SE 3.0 mph4.8 kmh 29.94 in1013.9 mb 0.00 in0.0 mm 0.00 in0.0 mm 0.00 in0.0 mm
08:20 AM 92.4°F33.6°C 67.0°F19.4°C 43% 1.6 mph SE2.6 kmh SE 3.0 mph4.8 kmh 29.94 in1013.9 mb 0.00 in0.0 mm 0.00 in0.0 mm 0.00 in0.0 mm
08:30 AM 91.9°F33.3°C 66.0°F18.9°C 43% 1.8 mph SSE2.9 kmh SSE 4.0 mph6.4 kmh 29.94 in1013.9 mb 0.00 in0.0 mm 0.00 in0.0 mm 0.00 in0.0 mm
08:40 AM 91.9°F33.3°C 67.0°F19.4°C 44% 1.4 mph SW2.3 kmh SW 4.0 mph6.4 kmh 29.93 in1013.5 mb 0.00 in0.0 mm 0.00 in0.0 mm 0.00 in0.0 mm
08:50 AM 92.1°F33.4°C 67.0°F19.4°C 43% 1.4 mph SSW2.3 kmh SSW 5.0 mph8.0 kmh 29.94 in1013.9 mb 0.00 in0.0 mm 0.00 in0.0 mm 0.00 in0.0 mm
09:00 AM 92.2°F33.4°C 67.0°F19.4°C 43% 1.7 mph SSE2.7 kmh SSE 4.0 mph6.4 kmh 29.93 in1013.5 mb 0.00 in0.0 mm 0.00 in0.0 mm 0.00 in0.0 mm
09:10 AM 93.1°F33.9°C 66.0°F18.9°C 41% 1.7 mph SW2.7 kmh SW 5.0 mph8.0 kmh 29.94 in1013.9 mb 0.00 in0.0 mm 0.00 in0.0 mm 0.00 in0.0 mm
09:20 AM 94.0°F34.4°C 65.0°F18.3°C 39% 1.4 mph SSW2.3 kmh SSW 5.0 mph8.0 kmh 29.94 in1013.9 mb 0.00 in0.0 mm 0.00 in0.0 mm 0.00 in0.0 mm
09:30 AM 94.2°F34.6°C 66.0°F18.9°C 39% 1.7 mph SSW2.7 kmh SSW 5.0 mph8.0 kmh 29.94 in1013.9 mb 0.00 in0.0 mm 0.00 in0.0 mm 0.00 in0.0 mm
09:40 AM 94.9°F34.9°C 66.0°F18.9°C 38% 1.0 mph SE1.6 kmh SE 5.0 mph8.0 kmh 29.94 in1013.9 mb 0.00 in0.0 mm 0.00 in0.0 mm 0.00 in0.0 mm
09:50 AM 94.9°F34.9°C 66.0°F18.9°C 38% 2.3 mph SSE3.7 kmh SSE 9.0 mph14.5 kmh 29.94 in1013.9 mb 0.00 in0.0 mm 0.00 in0.0 mm 0.00 in0.0 mm
10:00 AM 95.6°F35.3°C 65.0°F18.3°C 37% 2.2 mph SE3.5 kmh SE 6.0 mph9.7 kmh 29.94 in1013.9 mb 0.00 in0.0 mm 0.00 in0.0 mm 0.00 in0.0 mm
10:10 AM 95.6°F35.3°C 65.0°F18.3°C 36% 2.2 mph SSE3.5 kmh SSE 6.0 mph9.7 kmh 29.94 in1013.9 mb 0.00 in0.0 mm 0.00 in0.0 mm 0.00 in0.0 mm
10:20 AM 95.9°F35.5°C 64.0°F17.8°C 35% 2.4 mph SSW3.9 kmh SSW 7.0 mph11.3 kmh 29.94 in1013.9 mb 0.00 in0.0 mm 0.00 in0.0 mm 0.00 in0.0 mm
10:30 AM 96.6°F35.9°C 64.0°F17.8°C 34% 2.6 mph SW4.2 kmh SW 7.0 mph11.3 kmh 29.94 in1013.9 mb 0.00 in0.0 mm 0.00 in0.0 mm 0.00 in0.0 mm
10:40 AM 95.9°F35.5°C 63.0°F17.2°C 34% 3.4 mph SSW5.5 kmh SSW 7.0 mph11.3 kmh 29.94 in1013.9 mb 0.00 in0.0 mm 0.00 in0.0 mm 0.00 in0.0 mm
10:50 AM 96.7°F35.9°C 64.0°F17.8°C 34% 2.5 mph SW4.0 kmh SW 8.0 mph12.9 kmh 29.94 in1013.9 mb 0.00 in0.0 mm 0.00 in0.0 mm 0.00 in0.0 mm
11:00 AM 97.2°F36.2°C 64.0°F17.8°C 34% 2.6 mph SW4.2 kmh SW 8.0 mph12.9 kmh 29.94 in1013.9 mb 0.00 in0.0 mm 0.00 in0.0 mm 0.00 in0.0 mm
11:10 AM 97.9°F36.6°C 63.0°F17.2°C 31% 1.9 mph NNE3.1 kmh NNE 7.0 mph11.3 kmh 29.93 in1013.5 mb 0.00 in0.0 mm 0.00 in0.0 mm 0.00 in0.0 mm
11:20 AM 98.7°F37.1°C 62.0°F16.7°C 30% 1.9 mph SE3.1 kmh SE 7.0 mph11.3 kmh 29.93 in1013.5 mb 0.00 in0.0 mm 0.00 in0.0 mm 0.00 in0.0 mm
11:30 AM 99.6°F37.6°C 62.0°F16.7°C 29% 2.0 mph WNW3.2 kmh WNW 7.0 mph11.3 kmh 29.93 in1013.5 mb 0.00 in0.0 mm 0.00 in0.0 mm 0.00 in0.0 mm
11:40 AM 99.3°F37.4°C 63.0°F17.2°C 30% 1.0 mph S1.6 kmh S 5.0 mph8.0 kmh 29.92 in1013.2 mb 0.00 in0.0 mm 0.00 in0.0 mm 0.00 in0.0 mm
11:50 AM 99.6°F37.6°C 63.0°F17.2°C 30% 2.5 mph WNW4.0 kmh WNW 8.0 mph12.9 kmh 29.92 in1013.2 mb 0.00 in0.0 mm 0.00 in0.0 mm 0.00 in0.0 mm
12:00 PM 100.0°F37.8°C 61.0°F16.1°C 28% 1.0 mph S1.6 kmh S 4.0 mph6.4 kmh 29.91 in1012.9 mb 0.00 in0.0 mm 0.00 in0.0 mm 0.00 in0.0 mm
12:10 PM 99.5°F37.5°C 62.0°F16.7°C 29% 3.1 mph W5.0 kmh W 9.0 mph14.5 kmh 29.91 in1012.9 mb 0.00 in0.0 mm 0.00 in0.0 mm 0.00 in0.0 mm
12:20 PM 100.2°F37.9°C 62.0°F16.7°C 28% 1.8 mph S2.9 kmh S 9.0 mph14.5 kmh 29.90 in1012.5 mb 0.00 in0.0 mm 0.00 in0.0 mm 0.00 in0.0 mm
12:30 PM 99.4°F37.4°C 61.0°F16.1°C 28% 3.2 mph NW5.1 kmh NW 9.0 mph14.5 kmh 29.90 in1012.5 mb 0.00 in0.0 mm 0.00 in0.0 mm 0.00 in0.0 mm
12:40 PM 100.7°F38.2°C 61.0°F16.1°C 27% 2.2 mph SW3.5 kmh SW 9.0 mph14.5 kmh 29.90 in1012.5 mb 0.00 in0.0 mm 0.00 in0.0 mm 0.00 in0.0 mm
12:50 PM 100.8°F38.2°C 61.0°F16.1°C 27% 3.6 mph WSW5.8 kmh WSW 8.0 mph12.9 kmh 29.89 in1012.2 mb 0.00 in0.0 mm 0.00 in0.0 mm 0.00 in0.0 mm
01:00 PM 100.3°F37.9°C 61.0°F16.1°C 27% 2.4 mph S3.9 kmh S 7.0 mph11.3 kmh 29.89 in1012.2 mb 0.00 in0.0 mm 0.00 in0.0 mm 0.00 in0.0 mm
01:10 PM 100.8°F38.2°C 61.0°F16.1°C 27% 2.7 mph SSE4.3 kmh SSE 6.0 mph9.7 kmh 29.88 in1011.9 mb 0.00 in0.0 mm 0.00 in0.0 mm 0.00 in0.0 mm
01:20 PM 100.4°F38.0°C 61.0°F16.1°C 27% 4.0 mph SE6.4 kmh SE 10.0 mph16.1 kmh 29.88 in1011.9 mb 0.00 in0.0 mm 0.00 in0.0 mm 0.00 in0.0 mm
01:30 PM 101.4°F38.6°C 62.0°F16.7°C 27% 2.8 mph SW4.5 kmh SW 13.0 mph20.9 kmh 29.87 in1011.5 mb 0.00 in0.0 mm 0.00 in0.0 mm 0.00 in0.0 mm
01:40 PM 101.8°F38.8°C 61.0°F16.1°C 26% 3.5 mph WSW5.6 kmh WSW 10.0 mph16.1 kmh 29.87 in1011.5 mb 0.00 in0.0 mm 0.00 in0.0 mm 0.00 in0.0 mm
01:50 PM 101.7°F38.7°C 61.0°F16.1°C 26% 2.3 mph SE3.7 kmh SE 8.0 mph12.9 kmh 29.86 in1011.2 mb 0.00 in0.0 mm 0.00 in0.0 mm 0.00 in0.0 mm
02:00 PM 102.4°F39.1°C 61.0°F16.1°C 26% 2.8 mph SW4.5 kmh SW 9.0 mph14.5 kmh 29.86 in1011.2 mb 0.00 in0.0 mm 0.00 in0.0 mm 0.00 in0.0 mm
02:10 PM 102.4°F39.1°C 61.0°F16.1°C 26% 2.2 mph WNW3.5 kmh WNW 6.0 mph9.7 kmh 29.85 in1010.8 mb 0.00 in0.0 mm 0.00 in0.0 mm 0.00 in0.0 mm
02:20 PM 103.1°F39.5°C 62.0°F16.7°C 26% 1.2 mph SW1.9 kmh SW 8.0 mph12.9 kmh 29.85 in1010.8 mb 0.00 in0.0 mm 0.00 in0.0 mm 0.00 in0.0 mm
02:30 PM 103.6°F39.8°C 59.0°F15.0°C 23% 3.4 mph SW5.5 kmh SW 9.0 mph14.5 kmh 29.85 in1010.8 mb 0.00 in0.0 mm 0.00 in0.0 mm 0.00 in0.0 mm
02:40 PM 104.2°F40.1°C 62.0°F16.7°C 25% 0.8 mph S1.3 kmh S 10.0 mph16.1 kmh 29.84 in1010.5 mb 0.00 in0.0 mm 0.00 in0.0 mm 0.00 in0.0 mm
02:50 PM 103.8°F39.9°C 62.0°F16.7°C 25% 4.3 mph SW6.9 kmh SW 10.0 mph16.1 kmh 29.83 in1010.2 mb 0.00 in0.0 mm 0.00 in0.0 mm 0.00 in0.0 mm
03:00 PM 102.6°F39.2°C 62.0°F16.7°C 26% 3.4 mph SW5.5 kmh SW 11.0 mph17.7 kmh 29.83 in1010.2 mb 0.00 in0.0 mm 0.00 in0.0 mm 0.00 in0.0 mm
03:10 PM 103.9°F39.9°C 62.0°F16.7°C 25% 2.6 mph SSW4.2 kmh SSW 9.0 mph14.5 kmh 29.83 in1010.2 mb 0.00 in0.0 mm 0.00 in0.0 mm 0.00 in0.0 mm
03:20 PM 103.5°F39.7°C 61.0°F16.1°C 25% 4.5 mph SSE7.2 kmh SSE 10.0 mph16.1 kmh 29.82 in1009.8 mb 0.00 in0.0 mm 0.00 in0.0 mm 0.00 in0.0 mm
03:30 PM 102.7°F39.3°C 62.0°F16.7°C 26% 4.7 mph SW7.6 kmh SW 11.0 mph17.7 kmh 29.82 in1009.8 mb 0.00 in0.0 mm 0.00 in0.0 mm 0.00 in0.0 mm
03:40 PM 103.7°F39.8°C 63.0°F17.2°C 26% 3.3 mph S5.3 kmh S 11.0 mph17.7 kmh 29.82 in1009.8 mb 0.00 in0.0 mm 0.00 in0.0 mm 0.00 in0.0 mm
03:50 PM 103.2°F39.6°C 62.0°F16.7°C 26% 3.1 mph SW5.0 kmh SW 10.0 mph16.1 kmh 29.81 in1009.5 mb 0.00 in0.0 mm 0.00 in0.0 mm 0.00 in0.0 mm
04:00 PM 103.4°F39.7°C 61.0°F16.1°C 25% 4.6 mph SW7.4 kmh SW 14.0 mph22.5 kmh 29.81 in1009.5 mb 0.00 in0.0 mm 0.00 in0.0 mm 0.00 in0.0 mm
04:10 PM 103.0°F39.4°C 62.0°F16.7°C 26% 2.9 mph SW4.7 kmh SW 9.0 mph14.5 kmh 29.80 in1009.1 mb 0.00 in0.0 mm 0.00 in0.0 mm 0.00 in0.0 mm
04:20 PM 103.7°F39.8°C 62.0°F16.7°C 25% 0.6 mph NW1.0 kmh NW 4.0 mph6.4 kmh 29.80 in1009.1 mb 0.00 in0.0 mm 0.00 in0.0 mm 0.00 in0.0 mm
04:30 PM 103.7°F39.8°C 60.0°F15.6°C 24% 2.9 mph SSW4.7 kmh SSW 11.0 mph17.7 kmh 29.80 in1009.1 mb 0.00 in0.0 mm 0.00 in0.0 mm 0.00 in0.0 mm
04:40 PM 102.8°F39.3°C 60.0°F15.6°C 24% 1.6 mph NW2.6 kmh NW 5.0 mph8.0 kmh 29.80 in1009.1 mb 0.00 in0.0 mm 0.00 in0.0 mm 0.00 in0.0 mm
04:50 PM 102.8°F39.3°C 60.0°F15.6°C 24% 1.5 mph NW2.4 kmh NW 7.0 mph11.3 kmh 29.79 in1008.8 mb 0.00 in0.0 mm 0.00 in0.0 mm 0.00 in0.0 mm
05:00 PM 103.1°F39.5°C 60.0°F15.6°C 24% 1.5 mph S2.4 kmh S 11.0 mph17.7 kmh 29.79 in1008.8 mb 0.00 in0.0 mm 0.00 in0.0 mm 0.00 in0.0 mm
05:10 PM 103.4°F39.7°C 59.0°F15.0°C 23% 2.7 mph SW4.3 kmh SW 8.0 mph12.9 kmh 29.78 in1008.5 mb 0.00 in0.0 mm 0.00 in0.0 mm 0.00 in0.0 mm
05:20 PM 102.7°F39.3°C 60.0°F15.6°C 24% 3.3 mph WSW5.3 kmh WSW 10.0 mph16.1 kmh 29.78 in1008.5 mb 0.00 in0.0 mm 0.00 in0.0 mm 0.00 in0.0 mm
05:30 PM 102.9°F39.4°C 60.0°F15.6°C 24% 2.9 mph SW4.7 kmh SW 7.0 mph11.3 kmh 29.78 in1008.5 mb 0.00 in0.0 mm 0.00 in0.0 mm 0.00 in0.0 mm
05:40 PM 102.9°F39.4°C 60.0°F15.6°C 24% 1.6 mph N2.6 kmh N 9.0 mph14.5 kmh 29.78 in1008.5 mb 0.00 in0.0 mm 0.00 in0.0 mm 0.00 in0.0 mm
05:50 PM 102.6°F39.2°C 58.0°F14.4°C 23% 0.8 mph SW1.3 kmh SW 2.0 mph3.2 kmh 29.79 in1008.8 mb 0.00 in0.0 mm 0.00 in0.0 mm 0.00 in0.0 mm
06:00 PM 102.5°F39.2°C 58.0°F14.4°C 23% 2.3 mph SW3.7 kmh SW 7.0 mph11.3 kmh 29.79 in1008.8 mb 0.00 in0.0 mm 0.00 in0.0 mm 0.00 in0.0 mm
06:10 PM 102.5°F39.2°C 58.0°F14.4°C 23% 2.4 mph S3.9 kmh S 10.0 mph16.1 kmh 29.78 in1008.5 mb 0.00 in0.0 mm 0.00 in0.0 mm 0.00 in0.0 mm
06:20 PM 102.4°F39.1°C 59.0°F15.0°C 24% 1.8 mph SW2.9 kmh SW 9.0 mph14.5 kmh 29.79 in1008.8 mb 0.00 in0.0 mm 0.00 in0.0 mm 0.00 in0.0 mm
06:30 PM 101.9°F38.8°C 60.0°F15.6°C 25% 4.0 mph SSW6.4 kmh SSW 8.0 mph12.9 kmh 29.79 in1008.8 mb 0.00 in0.0 mm 0.00 in0.0 mm 0.00 in0.0 mm
06:40 PM 101.7°F38.7°C 60.0°F15.6°C 25% 3.1 mph SSW5.0 kmh SSW 8.0 mph12.9 kmh 29.79 in1008.8 mb 0.00 in0.0 mm 0.00 in0.0 mm 0.00 in0.0 mm
06:50 PM 101.6°F38.7°C 59.0°F15.0°C 24% 2.4 mph SW3.9 kmh SW 9.0 mph14.5 kmh 29.79 in1008.8 mb 0.00 in0.0 mm 0.00 in0.0 mm 0.00 in0.0 mm
07:00 PM 101.1°F38.4°C 59.0°F15.0°C 25% 3.6 mph S5.8 kmh S 11.0 mph17.7 kmh 29.79 in1008.8 mb 0.00 in0.0 mm 0.00 in0.0 mm 0.00 in0.0 mm
07:10 PM 100.7°F38.2°C 59.0°F15.0°C 25% 4.3 mph S6.9 kmh S 9.0 mph14.5 kmh 29.79 in1008.8 mb 0.00 in0.0 mm 0.00 in0.0 mm 0.00 in0.0 mm
07:20 PM 100.5°F38.1°C 59.0°F15.0°C 25% 2.9 mph S4.7 kmh S 7.0 mph11.3 kmh 29.79 in1008.8 mb 0.00 in0.0 mm 0.00 in0.0 mm 0.00 in0.0 mm
07:30 PM 100.0°F37.8°C 59.0°F15.0°C 26% 2.4 mph S3.9 kmh S 8.0 mph12.9 kmh 29.80 in1009.1 mb 0.00 in0.0 mm 0.00 in0.0 mm 0.00 in0.0 mm
07:40 PM 99.5°F37.5°C 59.0°F15.0°C 26% 3.8 mph SW6.1 kmh SW 9.0 mph14.5 kmh 29.81 in1009.5 mb 0.00 in0.0 mm 0.00 in0.0 mm 0.00 in0.0 mm
07:50 PM 99.2°F37.3°C 60.0°F15.6°C 27% 2.6 mph SSW4.2 kmh SSW 7.0 mph11.3 kmh 29.81 in1009.5 mb 0.00 in0.0 mm 0.00 in0.0 mm 0.00 in0.0 mm
08:00 PM 98.9°F37.2°C 60.0°F15.6°C 27% 2.3 mph S3.7 kmh S 6.0 mph9.7 kmh 29.82 in1009.8 mb 0.00 in0.0 mm 0.00 in0.0 mm 0.00 in0.0 mm
08:10 PM 98.5°F36.9°C 60.0°F15.6°C 28% 2.4 mph SW3.9 kmh SW 8.0 mph12.9 kmh 29.82 in1009.8 mb 0.00 in0.0 mm 0.00 in0.0 mm 0.00 in0.0 mm
08:20 PM 98.3°F36.8°C 60.0°F15.6°C 28% 2.7 mph SSW4.3 kmh SSW 7.0 mph11.3 kmh 29.82 in1009.8 mb 0.00 in0.0 mm 0.00 in0.0 mm 0.00 in0.0 mm
08:30 PM 97.9°F36.6°C 61.0°F16.1°C 29% 2.5 mph SW4.0 kmh SW 6.0 mph9.7 kmh 29.82 in1009.8 mb 0.00 in0.0 mm 0.00 in0.0 mm 0.00 in0.0 mm
08:40 PM 97.7°F36.5°C 60.0°F15.6°C 29% 2.1 mph SSW3.4 kmh SSW 5.0 mph8.0 kmh 29.82 in1009.8 mb 0.00 in0.0 mm 0.00 in0.0 mm 0.00 in0.0 mm
08:50 PM 97.3°F36.3°C 60.0°F15.6°C 29% 1.8 mph SW2.9 kmh SW 4.0 mph6.4 kmh 29.83 in1010.2 mb 0.00 in0.0 mm 0.00 in0.0 mm 0.00 in0.0 mm
09:00 PM 97.2°F36.2°C 60.0°F15.6°C 29% 2.5 mph SW4.0 kmh SW 6.0 mph9.7 kmh 29.83 in1010.2 mb 0.00 in0.0 mm 0.00 in0.0 mm 0.00 in0.0 mm
09:10 PM 96.9°F36.1°C 61.0°F16.1°C 30% 1.8 mph SW2.9 kmh SW 4.0 mph6.4 kmh 29.84 in1010.5 mb 0.00 in0.0 mm 0.00 in0.0 mm 0.00 in0.0 mm
09:20 PM 96.7°F35.9°C 61.0°F16.1°C 30% 1.8 mph SW2.9 kmh SW 5.0 mph8.0 kmh 29.84 in1010.5 mb 0.00 in0.0 mm 0.00 in0.0 mm 0.00 in0.0 mm
09:30 PM 96.4°F35.8°C 60.0°F15.6°C 30% 1.1 mph S1.8 kmh S 4.0 mph6.4 kmh 29.84 in1010.5 mb 0.00 in0.0 mm 0.00 in0.0 mm 0.00 in0.0 mm
09:40 PM 96.1°F35.6°C 60.0°F15.6°C 30% 1.5 mph SW2.4 kmh SW 5.0 mph8.0 kmh 29.84 in1010.5 mb 0.00 in0.0 mm 0.00 in0.0 mm 0.00 in0.0 mm
09:50 PM 95.7°F35.4°C 60.0°F15.6°C 30% 1.0 mph SW1.6 kmh SW 4.0 mph6.4 kmh 29.84 in1010.5 mb 0.00 in0.0 mm 0.00 in0.0 mm 0.00 in0.0 mm
10:00 PM 95.5°F35.3°C 60.0°F15.6°C 31% 1.2 mph SW1.9 kmh SW 4.0 mph6.4 kmh 29.84 in1010.5 mb 0.00 in0.0 mm 0.00 in0.0 mm 0.00 in0.0 mm
10:10 PM 95.2°F35.1°C 61.0°F16.1°C 32% 0.7 mph SW1.1 kmh SW 4.0 mph6.4 kmh 29.84 in1010.5 mb 0.00 in0.0 mm 0.00 in0.0 mm 0.00 in0.0 mm
10:20 PM 94.8°F34.9°C 61.0°F16.1°C 32% 0.6 mph SW1.0 kmh SW 3.0 mph4.8 kmh 29.84 in1010.5 mb 0.00 in0.0 mm 0.00 in0.0 mm 0.00 in0.0 mm
10:30 PM 94.5°F34.7°C 61.0°F16.1°C 33% 0.6 mph SW1.0 kmh SW 3.0 mph4.8 kmh 29.84 in1010.5 mb 0.00 in0.0 mm 0.00 in0.0 mm 0.00 in0.0 mm
10:40 PM 94.1°F34.5°C 61.0°F16.1°C 33% 0.2 mph SSW0.3 kmh SSW 2.0 mph3.2 kmh 29.84 in1010.5 mb 0.00 in0.0 mm 0.00 in0.0 mm 0.00 in0.0 mm
10:50 PM 93.5°F34.2°C 61.0°F16.1°C 34% Calm Calm -- 29.84 in1010.5 mb 0.00 in0.0 mm 0.00 in0.0 mm 0.00 in0.0 mm
11:00 PM 93.1°F33.9°C 61.0°F16.1°C 34% 0.1 mph SW0.2 kmh SW 2.0 mph3.2 kmh 29.84 in1010.5 mb 0.00 in0.0 mm 0.00 in0.0 mm 0.00 in0.0 mm
11:10 PM 92.8°F33.8°C 61.0°F16.1°C 34% Calm Calm -- 29.84 in1010.5 mb 0.00 in0.0 mm 0.00 in0.0 mm 0.00 in0.0 mm
11:20 PM 92.9°F33.8°C 61.0°F16.1°C 34% Calm Calm -- 29.84 in1010.5 mb 0.00 in0.0 mm 0.00 in0.0 mm 0.00 in0.0 mm
11:30 PM 93.4°F34.1°C 60.0°F15.6°C 33% Calm Calm 3.0 mph4.8 kmh 29.83 in1010.2 mb 0.00 in0.0 mm 0.00 in0.0 mm 0.00 in0.0 mm
11:40 PM 93.3°F34.1°C 61.0°F16.1°C 34% 0.1 mph NW0.2 kmh NW 1.0 mph1.6 kmh 29.84 in1010.5 mb 0.00 in0.0 mm 0.00 in0.0 mm 0.00 in0.0 mm
11:50 PM 92.9°F33.8°C 61.0°F16.1°C 34% Calm Calm 1.0 mph1.6 kmh 29.84 in1010.5 mb 0.00 in0.0 mm 0.00 in0.0 mm 0.00 in0.0 mm